createdAt,value
2023-04-06T00:00:10.567Z,20.63
2023-04-06T00:02:38.974Z,20.50
2023-04-06T00:05:08.224Z,20.93
2023-04-06T00:07:36.908Z,21.30
2023-04-06T00:10:08.352Z,21.03
2023-04-06T00:12:36.922Z,21.23
2023-04-06T00:15:06.825Z,20.77
2023-04-06T00:17:35.374Z,21.20
2023-04-06T00:20:04.155Z,22.07
2023-04-06T00:22:32.617Z,20.70
2023-04-06T00:25:00.916Z,20.93
2023-04-06T00:27:30.809Z,22.30
2023-04-06T00:29:59.357Z,21.13
2023-04-06T00:32:27.824Z,21.07
2023-04-06T00:34:56.473Z,21.70
2023-04-06T00:37:25.156Z,22.13
2023-04-06T00:39:53.735Z,22.43
2023-04-06T00:42:26.940Z,20.93
2023-04-06T00:44:58.768Z,21.10
2023-04-06T00:47:27.866Z,21.03
2023-04-06T00:49:57.097Z,21.03
2023-04-06T00:52:26.262Z,20.60
2023-04-06T00:54:54.707Z,21.43
2023-04-06T00:57:23.483Z,21.50
2023-04-06T00:59:52.282Z,21.53
2023-04-06T01:02:22.485Z,21.30
2023-04-06T01:04:51.118Z,20.73
2023-04-06T01:07:19.651Z,20.70
2023-04-06T01:09:48.213Z,22.73
2023-04-06T01:12:16.551Z,22.20
2023-04-06T01:14:45.212Z,21.43
2023-04-06T01:17:14.010Z,21.10
2023-04-06T01:19:43.778Z,21.50
2023-04-06T01:22:18.235Z,21.43
2023-04-06T01:24:47.267Z,21.03
2023-04-06T01:27:16.186Z,21.63
2023-04-06T01:29:44.746Z,20.87
2023-04-06T01:32:13.323Z,21.40
2023-04-06T01:34:41.744Z,20.80
2023-04-06T01:37:10.537Z,21.17
2023-04-06T01:39:40.902Z,20.57
2023-04-06T01:42:09.230Z,22.57
2023-04-06T01:44:38.273Z,20.80
2023-04-06T01:47:06.850Z,20.90
2023-04-06T01:49:35.267Z,21.70
2023-04-06T01:52:03.834Z,21.43
2023-04-06T01:54:32.277Z,24.03
2023-04-06T01:57:02.023Z,20.00
2023-04-06T01:59:30.412Z,20.60
2023-04-06T02:01:58.939Z,21.00
2023-04-06T02:04:27.476Z,21.03
2023-04-06T02:06:56.030Z,20.30
2023-04-06T02:09:24.477Z,20.57
2023-04-06T02:11:52.911Z,20.90
2023-04-06T02:14:22.792Z,20.23
2023-04-06T02:16:51.686Z,20.03
2023-04-06T02:19:20.654Z,21.10
2023-04-06T02:21:49.191Z,20.40
2023-04-06T02:24:17.637Z,19.80
2023-04-06T02:26:45.955Z,20.57
2023-04-06T02:29:14.290Z,21.87
2023-04-06T02:31:44.286Z,20.70
2023-04-06T02:34:18.621Z,20.10
2023-04-06T02:36:47.890Z,20.17
2023-04-06T02:39:16.818Z,20.03
2023-04-06T02:41:45.741Z,23.40
2023-04-06T02:44:14.166Z,20.20
2023-04-06T02:46:43.922Z,19.80
2023-04-06T02:49:12.615Z,20.23
2023-04-06T02:51:41.182Z,19.80
2023-04-06T02:54:09.728Z,20.80
2023-04-06T02:56:38.296Z,19.77
2023-04-06T02:59:07.304Z,19.97
2023-04-06T03:01:36.302Z,19.97
2023-04-06T03:04:06.171Z,20.63
2023-04-06T03:06:34.692Z,20.00
2023-04-06T03:09:03.143Z,19.90
2023-04-06T03:11:31.716Z,20.20
2023-04-06T03:14:00.250Z,20.20
2023-04-06T03:16:28.874Z,20.00
2023-04-06T03:18:57.256Z,20.53
2023-04-06T03:21:27.129Z,21.20
2023-04-06T03:23:55.465Z,20.20
2023-04-06T03:26:24.495Z,20.90
2023-04-06T03:28:53.058Z,20.17
2023-04-06T03:31:21.650Z,20.47
2023-04-06T03:33:49.930Z,20.10
2023-04-06T03:36:18.252Z,20.00
2023-04-06T03:38:49.115Z,20.73
2023-04-06T03:41:17.653Z,20.30
2023-04-06T03:43:46.336Z,21.50
2023-04-06T03:46:14.685Z,20.50
2023-04-06T03:48:43.094Z,20.43
2023-04-06T03:51:11.654Z,21.20
2023-04-06T03:53:40.100Z,21.20
2023-04-06T03:56:10.097Z,21.10
2023-04-06T03:58:38.548Z,21.60
2023-04-06T04:01:07.247Z,21.10
2023-04-06T04:03:35.992Z,21.40
2023-04-06T04:06:04.826Z,21.43
2023-04-06T04:08:33.508Z,20.80
2023-04-06T04:11:02.063Z,24.57
2023-04-06T04:13:31.724Z,22.27
2023-04-06T04:16:00.320Z,21.20
2023-04-06T04:18:28.835Z,21.10
2023-04-06T04:20:57.148Z,21.17
2023-04-06T04:23:25.469Z,21.13
2023-04-06T04:25:53.913Z,21.80
2023-04-06T04:28:22.474Z,20.47
2023-04-06T04:30:52.241Z,23.23
2023-04-06T04:33:20.804Z,21.23
2023-04-06T04:35:49.507Z,21.93
2023-04-06T04:38:17.918Z,21.20
2023-04-06T04:40:46.485Z,21.67
2023-04-06T04:43:14.824Z,22.13
2023-04-06T04:45:43.283Z,23.70
2023-04-06T04:48:13.195Z,21.00
2023-04-06T04:50:41.449Z,20.37
2023-04-06T04:53:10.012Z,21.37
2023-04-06T04:55:38.755Z,19.67
2023-04-06T04:58:07.253Z,18.97
2023-04-06T05:00:35.822Z,19.77
2023-04-06T05:03:06.657Z,18.90
2023-04-06T05:05:36.550Z,19.80
2023-04-06T05:08:05.578Z,19.73
2023-04-06T05:10:35.339Z,19.30
2023-04-06T05:13:03.661Z,19.07
2023-04-06T05:15:32.484Z,18.90
2023-04-06T05:18:01.157Z,19.80
2023-04-06T05:20:29.949Z,18.70
2023-04-06T05:22:59.965Z,20.40
2023-04-06T05:25:28.755Z,18.70
2023-04-06T05:27:57.664Z,18.63
2023-04-06T05:30:26.744Z,18.93
2023-04-06T05:32:55.412Z,19.07
2023-04-06T05:35:23.993Z,19.80
2023-04-06T05:37:52.387Z,20.17
2023-04-06T05:40:22.267Z,20.07
2023-04-06T05:42:50.826Z,19.70
2023-04-06T05:45:19.741Z,19.07
2023-04-06T05:47:48.429Z,19.20
2023-04-06T05:50:17.585Z,18.53
2023-04-06T05:52:47.473Z,20.37
2023-04-06T05:55:16.184Z,19.03
2023-04-06T05:57:46.143Z,21.00
2023-04-06T06:00:15.912Z,18.77
2023-04-06T06:02:45.799Z,19.57
2023-04-06T06:05:14.664Z,20.40
2023-04-06T06:11:31.627Z,19.50
2023-04-06T06:14:01.389Z,20.47
2023-04-06T06:16:30.370Z,21.37
2023-04-06T06:18:58.749Z,20.20
2023-04-06T06:21:27.689Z,19.60
2023-04-06T06:23:56.230Z,19.73
2023-04-06T06:26:24.565Z,21.00
2023-04-06T06:28:52.989Z,19.50
2023-04-06T06:31:23.777Z,19.97
2023-04-06T06:33:52.659Z,19.67
2023-04-06T06:36:21.681Z,18.87
2023-04-06T06:38:50.120Z,19.77
2023-04-06T06:41:18.698Z,19.10
2023-04-06T06:43:47.744Z,19.50
2023-04-06T06:46:16.557Z,19.17
2023-04-06T06:48:46.555Z,19.63
2023-04-06T06:51:15.157Z,19.27
2023-04-06T06:53:46.311Z,19.70
2023-04-06T06:56:14.977Z,19.80
2023-04-06T06:58:43.540Z,19.13
2023-04-06T07:01:12.625Z,19.83
2023-04-06T07:03:41.380Z,20.10
2023-04-06T07:06:11.383Z,19.97
2023-04-06T07:08:39.938Z,19.80
2023-04-06T07:11:08.498Z,19.87
2023-04-06T07:13:37.204Z,20.27
2023-04-06T07:16:06.156Z,24.73
2023-04-06T07:18:36.236Z,19.50
2023-04-06T07:21:05.626Z,19.13
2023-04-06T07:23:35.489Z,19.80
2023-04-06T07:26:04.301Z,18.70
2023-04-06T07:28:33.007Z,19.37
2023-04-06T07:31:01.418Z,18.90
2023-04-06T07:33:31.079Z,19.60
2023-04-06T07:36:00.219Z,19.80
2023-04-06T07:38:28.785Z,19.10
2023-04-06T07:40:58.792Z,18.80
2023-04-06T07:43:27.460Z,19.60
2023-04-06T07:45:56.790Z,18.90
2023-04-06T07:48:25.613Z,19.73
2023-04-06T07:50:54.109Z,18.83
2023-04-06T07:53:22.910Z,20.20
2023-04-06T07:55:51.362Z,19.80
2023-04-06T07:58:21.113Z,19.83
2023-04-06T08:00:49.805Z,19.00
2023-04-06T08:03:19.013Z,18.50
2023-04-06T08:05:47.909Z,18.90
2023-04-06T08:08:16.972Z,19.00
2023-04-06T08:10:45.603Z,20.03
2023-04-06T08:13:14.166Z,20.07
2023-04-06T08:15:44.233Z,19.90
2023-04-06T08:18:13.073Z,20.30
2023-04-06T08:20:41.653Z,19.70
2023-04-06T08:23:10.561Z,19.53
2023-04-06T08:25:39.503Z,20.37
2023-04-06T08:28:08.177Z,19.47
2023-04-06T08:30:36.725Z,19.97
2023-04-06T08:33:07.106Z,19.93
2023-04-06T08:35:35.654Z,20.20
2023-04-06T08:38:04.220Z,19.97
2023-04-06T08:40:32.882Z,20.30
2023-04-06T08:43:04.917Z,20.03
2023-04-06T08:45:33.479Z,19.03
2023-04-06T08:48:03.110Z,19.43
2023-04-06T08:50:34.684Z,22.20
2023-04-06T08:53:03.746Z,20.47
2023-04-06T08:55:33.127Z,20.67
2023-04-06T08:58:02.649Z,19.50
2023-04-06T09:00:31.812Z,19.87
2023-04-06T09:03:01.108Z,19.47
2023-04-06T09:05:29.887Z,20.93
2023-04-06T09:07:59.666Z,20.97
2023-04-06T09:10:28.329Z,21.23
2023-04-06T09:13:05.649Z,19.90
2023-04-06T09:15:34.228Z,20.40
2023-04-06T09:18:02.820Z,19.50
2023-04-06T09:20:31.486Z,19.47
2023-04-06T09:23:01.824Z,19.50
2023-04-06T09:25:32.416Z,19.50
2023-04-06T09:28:02.100Z,18.70
2023-04-06T09:30:31.228Z,20.40
2023-04-06T09:33:00.954Z,19.17
2023-04-06T09:35:32.397Z,21.33
2023-04-06T09:38:13.259Z,19.73
2023-04-06T09:41:00.617Z,19.37
2023-04-06T09:43:31.858Z,19.97
2023-04-06T09:46:04.001Z,20.30
2023-04-06T09:48:36.340Z,19.07
2023-04-06T09:51:07.479Z,19.87
2023-04-06T09:53:41.436Z,19.87
2023-04-06T09:56:13.847Z,19.60
2023-04-06T09:58:45.634Z,19.70
2023-04-06T10:01:17.680Z,19.90
2023-04-06T10:03:52.499Z,19.67
2023-04-06T10:06:23.931Z,20.63
2023-04-06T10:08:56.669Z,19.13
2023-04-06T10:11:25.715Z,19.10
2023-04-06T10:13:54.396Z,19.10
2023-04-06T10:16:23.695Z,19.90
2023-04-06T10:18:58.838Z,20.13
2023-04-06T10:21:29.909Z,20.87
2023-04-06T10:24:02.576Z,19.63
2023-04-06T10:26:32.447Z,19.53
2023-04-06T10:29:05.929Z,20.10
2023-04-06T10:31:34.771Z,20.30
2023-04-06T10:34:04.241Z,20.90
2023-04-06T10:36:35.321Z,21.70
2023-04-06T10:39:07.647Z,21.33
2023-04-06T10:41:37.121Z,21.90
2023-04-06T10:44:06.047Z,22.27
2023-04-06T10:46:35.831Z,21.90
2023-04-06T10:49:13.503Z,22.00
2023-04-06T10:51:42.301Z,22.73
2023-04-06T10:54:14.703Z,23.40
2023-04-06T10:56:43.159Z,23.57
2023-04-06T10:59:12.137Z,24.07
2023-04-06T11:01:40.717Z,24.40
2023-04-06T11:04:10.999Z,24.70
2023-04-06T11:06:41.097Z,24.73
2023-04-06T11:09:11.092Z,24.70
2023-04-06T11:11:42.059Z,25.33
2023-04-06T11:14:12.442Z,25.77
2023-04-06T11:16:40.864Z,28.43
2023-04-06T11:19:09.414Z,26.70
2023-04-06T11:21:40.553Z,28.47
2023-04-06T11:24:16.261Z,28.13
2023-04-06T11:26:47.122Z,29.90
2023-04-06T11:29:17.252Z,31.80
2023-04-06T11:31:49.420Z,30.43
2023-04-06T11:34:21.096Z,31.43
2023-04-06T11:36:51.860Z,31.47
2023-04-06T11:39:27.674Z,33.10
2023-04-06T11:41:59.729Z,31.00
2023-04-06T11:44:36.328Z,32.30
2023-04-06T11:47:07.525Z,32.87
2023-04-06T11:49:42.122Z,31.03
2023-04-06T11:52:18.442Z,28.77
2023-04-06T11:54:50.888Z,31.10
2023-04-06T11:57:20.740Z,32.00
2023-04-06T11:59:49.673Z,31.50
2023-04-06T12:02:19.005Z,33.70
2023-04-06T12:04:48.522Z,31.63
2023-04-06T12:07:17.630Z,32.13
2023-04-06T12:09:46.301Z,32.47
2023-04-06T12:12:16.513Z,33.63
2023-04-06T12:14:45.552Z,37.60
2023-04-06T12:17:14.532Z,32.70
2023-04-06T12:19:43.400Z,35.20
2023-04-06T12:22:13.393Z,33.50
2023-04-06T12:24:42.560Z,32.57
2023-04-06T12:27:12.716Z,30.40
2023-04-06T12:29:43.062Z,32.00
2023-04-06T12:32:11.868Z,33.63
2023-04-06T12:34:41.269Z,30.50
2023-04-06T12:37:09.817Z,30.60
2023-04-06T12:39:38.644Z,32.17
2023-04-06T12:42:07.445Z,29.90
2023-04-06T12:44:36.346Z,30.70
2023-04-06T12:47:08.695Z,31.87
2023-04-06T12:49:37.530Z,33.70
2023-04-06T12:52:06.731Z,34.83
2023-04-06T12:54:35.863Z,35.80
2023-04-06T12:57:05.458Z,36.60
2023-04-06T12:59:36.716Z,37.03
2023-04-06T13:02:07.930Z,38.43
2023-04-06T13:04:36.696Z,39.53
2023-04-06T13:07:05.615Z,41.07
2023-04-06T13:09:34.821Z,41.27
2023-04-06T13:12:03.818Z,39.00
2023-04-06T13:14:32.534Z,41.77
2023-04-06T13:17:01.331Z,44.60
2023-04-06T13:19:32.414Z,45.17
2023-04-06T13:22:01.208Z,47.20
2023-04-06T13:24:30.509Z,48.53
2023-04-06T13:26:59.276Z,52.17
2023-04-06T13:29:28.441Z,51.07
2023-04-06T13:31:57.284Z,48.83
2023-04-06T13:34:25.908Z,52.17
2023-04-06T13:36:56.104Z,54.77
2023-04-06T13:39:24.839Z,57.03
2023-04-06T13:41:57.282Z,55.23
2023-04-06T13:44:26.078Z,53.77
2023-04-06T13:46:55.018Z,58.67
2023-04-06T13:49:24.115Z,59.43
2023-04-06T13:51:53.177Z,55.80
2023-04-06T13:54:23.532Z,56.50
2023-04-06T13:56:54.037Z,56.87
2023-04-06T13:59:22.857Z,54.00
2023-04-06T14:01:51.728Z,57.60
2023-04-06T14:04:20.802Z,58.50
2023-04-06T14:06:49.581Z,59.70
2023-04-06T14:09:18.594Z,56.80
2023-04-06T14:11:48.754Z,61.23
2023-04-06T14:14:17.901Z,59.60
2023-04-06T14:16:47.726Z,58.63
2023-04-06T14:19:19.105Z,59.63
2023-04-06T14:21:47.896Z,58.70
2023-04-06T14:24:19.155Z,61.33
2023-04-06T14:26:49.337Z,62.00
2023-04-06T14:29:18.730Z,61.03
2023-04-06T14:31:49.705Z,60.40
2023-04-06T14:34:18.961Z,61.27
2023-04-06T14:36:47.956Z,67.90
2023-04-06T14:39:17.060Z,67.33
2023-04-06T14:41:46.496Z,62.47
2023-04-06T14:44:17.815Z,65.90
2023-04-06T14:46:47.000Z,67.33
2023-04-06T14:49:15.991Z,67.07
2023-04-06T14:51:44.892Z,69.47
2023-04-06T14:54:13.828Z,72.30
2023-04-06T14:56:44.290Z,77.87
2023-04-06T14:59:13.468Z,78.30
2023-04-06T15:01:44.539Z,80.77
2023-04-06T15:04:13.442Z,78.03
2023-04-06T15:06:42.513Z,76.53
2023-04-06T15:09:11.328Z,78.77
2023-04-06T15:11:40.092Z,76.90
2023-04-06T15:14:09.021Z,78.27
2023-04-06T15:16:37.933Z,80.20
2023-04-06T15:19:08.391Z,84.07
2023-04-06T15:21:37.359Z,81.23
2023-04-06T15:24:09.774Z,89.63
2023-04-06T15:26:39.013Z,87.03
2023-04-06T15:29:07.934Z,84.67
2023-04-06T15:31:38.541Z,84.40
2023-04-06T15:34:09.500Z,84.93
2023-04-06T15:36:38.415Z,81.20
2023-04-06T15:39:09.961Z,84.27
2023-04-06T15:41:38.925Z,83.63
2023-04-06T15:44:08.182Z,88.43
2023-04-06T15:46:36.742Z,90.47
2023-04-06T15:49:05.540Z,92.17
2023-04-06T15:51:35.543Z,96.53
2023-04-06T15:54:04.223Z,97.13
2023-04-06T15:56:33.898Z,95.47
2023-04-06T15:59:04.272Z,97.13
2023-04-06T16:01:32.954Z,102.77
2023-04-06T16:04:01.642Z,104.87
2023-04-06T16:06:32.306Z,105.37
2023-04-06T16:09:02.195Z,103.50
2023-04-06T16:11:32.434Z,102.47
2023-04-06T16:14:01.164Z,105.93
2023-04-06T16:16:29.938Z,106.93
2023-04-06T16:18:58.469Z,102.63
2023-04-06T16:21:27.507Z,105.60
2023-04-06T16:23:56.928Z,105.97
2023-04-06T16:26:28.850Z,106.87
2023-04-06T16:28:57.279Z,110.00
2023-04-06T16:31:26.507Z,107.30
2023-04-06T16:33:58.000Z,108.63
2023-04-06T16:36:32.231Z,104.70
2023-04-06T16:39:02.673Z,107.47
2023-04-06T16:41:33.516Z,106.07
2023-04-06T16:44:02.560Z,106.63
2023-04-06T16:46:32.227Z,103.43
2023-04-06T16:49:01.004Z,101.20
2023-04-06T16:51:30.169Z,106.53
2023-04-06T16:53:58.603Z,102.07
2023-04-06T16:56:27.624Z,102.47
2023-04-06T16:58:57.405Z,106.10
2023-04-06T17:01:29.658Z,109.17
2023-04-06T17:03:58.503Z,110.13
2023-04-06T17:06:28.240Z,112.00
2023-04-06T17:08:57.029Z,108.07
2023-04-06T17:11:28.489Z,108.77
2023-04-06T17:14:05.683Z,113.33
2023-04-06T17:16:34.136Z,112.60
2023-04-06T17:19:02.932Z,108.17
2023-04-06T17:21:31.247Z,109.00
2023-04-06T17:23:59.819Z,102.70
2023-04-06T17:26:28.378Z,104.73
2023-04-06T17:28:56.820Z,100.57
2023-04-06T17:31:26.693Z,107.30
2023-04-06T17:33:55.253Z,107.73
2023-04-06T17:36:24.510Z,103.60
2023-04-06T17:38:54.089Z,101.40
2023-04-06T17:41:22.872Z,97.67
2023-04-06T17:43:51.565Z,101.13
2023-04-06T17:46:21.522Z,96.23
2023-04-06T17:48:53.473Z,98.27
2023-04-06T17:51:25.639Z,96.37
2023-04-06T17:53:56.257Z,97.47
2023-04-06T17:56:26.197Z,99.33
2023-04-06T17:58:59.398Z,105.03
2023-04-06T18:01:28.851Z,107.57
2023-04-06T18:04:00.353Z,113.60
2023-04-06T18:06:29.382Z,111.20
2023-04-06T18:08:58.162Z,105.13
2023-04-06T18:11:29.592Z,115.47
2023-04-06T18:13:58.547Z,111.47
2023-04-06T18:16:29.337Z,116.78
2023-04-06T18:18:59.735Z,120.03
2023-04-06T18:21:28.661Z,113.07
2023-04-06T18:23:58.077Z,110.67
2023-04-06T18:26:27.981Z,102.50
2023-04-06T18:28:57.216Z,109.30
2023-04-06T18:31:26.427Z,107.63
2023-04-06T18:33:55.769Z,107.13
2023-04-06T18:36:26.270Z,110.13
2023-04-06T18:38:55.540Z,107.77
2023-04-06T18:41:24.495Z,110.07
2023-04-06T18:43:53.396Z,108.97
2023-04-06T18:46:22.877Z,109.53
2023-04-06T18:48:51.807Z,108.17
2023-04-06T18:51:21.140Z,105.60
2023-04-06T18:53:51.577Z,108.93
2023-04-06T18:56:21.465Z,108.27
2023-04-06T18:58:50.608Z,113.37
2023-04-06T19:01:23.251Z,112.07
2023-04-06T19:03:53.206Z,109.67
2023-04-06T19:06:23.148Z,110.00
2023-04-06T19:08:53.272Z,112.20
2023-04-06T19:11:25.298Z,109.77
2023-04-06T19:13:55.389Z,108.77
2023-04-06T19:16:25.505Z,108.40
2023-04-06T19:18:54.615Z,107.67
2023-04-06T19:21:25.201Z,107.07
2023-04-06T19:23:56.688Z,108.10
2023-04-06T19:26:28.705Z,107.73
2023-04-06T19:28:57.691Z,103.50
2023-04-06T19:31:28.243Z,110.33
2023-04-06T19:33:57.354Z,108.10
2023-04-06T19:36:26.200Z,114.27
2023-04-06T19:38:56.614Z,118.60
2023-04-06T19:41:26.609Z,117.50
2023-04-06T19:43:55.298Z,115.67
2023-04-06T19:46:23.904Z,121.73
2023-04-06T19:48:52.418Z,121.33
2023-04-06T19:51:20.734Z,124.23
2023-04-06T19:53:49.175Z,125.63
2023-04-06T19:56:18.848Z,124.40
2023-04-06T19:58:47.377Z,130.00
2023-04-06T20:01:15.718Z,126.20
2023-04-06T20:03:44.466Z,127.13
2023-04-06T20:06:13.057Z,122.60
2023-04-06T20:08:41.979Z,119.30
2023-04-06T20:11:10.684Z,120.50
2023-04-06T20:13:40.306Z,124.80
2023-04-06T20:16:08.911Z,123.87
2023-04-06T20:18:37.202Z,128.93
2023-04-06T20:21:05.870Z,131.17
2023-04-06T20:23:37.443Z,135.83
2023-04-06T20:26:06.114Z,129.90
2023-04-06T20:28:34.558Z,127.70
2023-04-06T20:31:04.315Z,133.57
2023-04-06T20:33:32.987Z,131.87
2023-04-06T20:36:02.268Z,135.03
2023-04-06T20:38:33.711Z,139.10
2023-04-06T20:41:02.675Z,130.43
2023-04-06T20:43:31.899Z,136.20
2023-04-06T20:46:02.275Z,135.53
2023-04-06T20:48:36.235Z,135.50
2023-04-06T20:51:05.654Z,134.47
2023-04-06T20:53:33.971Z,138.80
2023-04-06T20:56:03.368Z,135.10
2023-04-06T20:58:31.926Z,127.67
2023-04-06T21:01:00.602Z,131.17
2023-04-06T21:03:29.109Z,127.20
2023-04-06T21:06:02.193Z,121.77
2023-04-06T21:08:30.744Z,117.90
2023-04-06T21:10:59.050Z,126.37
2023-04-06T21:13:27.726Z,125.47
2023-04-06T21:15:56.375Z,125.40
2023-04-06T21:18:25.141Z,122.63
2023-04-06T21:20:53.649Z,123.50
2023-04-06T21:23:23.774Z,123.47
2023-04-06T21:25:52.327Z,128.77
2023-04-06T21:28:20.772Z,125.03
2023-04-06T21:30:49.383Z,121.63
2023-04-06T21:33:18.013Z,116.10
2023-04-06T21:35:46.577Z,115.70
2023-04-06T21:38:15.138Z,124.00
2023-04-06T21:40:45.021Z,119.47
2023-04-06T21:43:13.462Z,121.90
2023-04-06T21:45:41.894Z,116.73
2023-04-06T21:48:10.382Z,115.23
2023-04-06T21:50:41.290Z,113.43
2023-04-06T21:53:09.854Z,118.53
2023-04-06T21:55:44.779Z,121.20
2023-04-06T21:58:13.580Z,120.23
2023-04-06T22:00:42.151Z,118.93
2023-04-06T22:03:10.731Z,120.53
2023-04-06T22:05:39.260Z,124.83
2023-04-06T22:08:09.638Z,121.77
2023-04-06T22:10:40.828Z,121.90
2023-04-06T22:13:12.263Z,122.20
2023-04-06T22:15:40.820Z,123.83
2023-04-06T22:18:09.264Z,122.47
2023-04-06T22:20:38.064Z,123.63
2023-04-06T22:23:06.509Z,122.67
2023-04-06T22:25:34.943Z,128.20
2023-04-06T22:28:03.383Z,125.03
2023-04-06T22:30:33.022Z,127.77
2023-04-06T22:33:01.528Z,127.60
2023-04-06T22:35:29.946Z,122.07
2023-04-06T22:38:00.747Z,123.47
2023-04-06T22:40:29.313Z,122.37
2023-04-06T22:42:57.769Z,122.90
2023-04-06T22:45:26.915Z,119.43
2023-04-06T22:47:56.583Z,119.87
2023-04-06T22:50:24.879Z,114.90
2023-04-06T22:52:53.329Z,120.00
2023-04-06T22:55:22.117Z,124.97
2023-04-06T22:57:50.555Z,118.83
2023-04-06T23:00:19.360Z,118.23
2023-04-06T23:02:47.958Z,118.67
2023-04-06T23:05:17.802Z,118.10
2023-04-06T23:07:46.376Z,119.50
2023-04-06T23:10:14.922Z,122.33
2023-04-06T23:12:43.241Z,122.07
2023-04-06T23:15:12.288Z,122.13
2023-04-06T23:17:40.634Z,123.63
2023-04-06T23:20:09.767Z,125.03
2023-04-06T23:22:39.769Z,121.03
2023-04-06T23:25:09.650Z,125.77
2023-04-06T23:27:38.088Z,124.70
2023-04-06T23:30:07.849Z,125.30
2023-04-06T23:32:36.420Z,121.77
2023-04-06T23:35:05.334Z,126.97
2023-04-06T23:37:33.661Z,123.93
2023-04-06T23:40:04.641Z,123.10
2023-04-06T23:42:33.066Z,123.73
2023-04-06T23:45:01.374Z,126.77
2023-04-06T23:47:29.832Z,127.03
2023-04-06T23:49:58.261Z,128.30
2023-04-06T23:52:27.176Z,127.93
2023-04-06T23:54:55.498Z,128.80
2023-04-06T23:57:25.620Z,126.43
2023-04-06T23:59:54.192Z,124.67
